createdAt,value
2019-06-27T00:01:36.439Z,55.34
2019-06-27T00:04:02.582Z,55.18
2019-06-27T00:06:28.616Z,55.33
2019-06-27T00:08:54.699Z,55.28
2019-06-27T00:11:20.750Z,55.49
2019-06-27T00:13:46.675Z,55.52
2019-06-27T00:16:12.776Z,55.57
2019-06-27T00:18:38.766Z,55.71
2019-06-27T00:21:04.758Z,55.85
2019-06-27T00:23:30.791Z,55.90
2019-06-27T00:25:56.716Z,56.03
2019-06-27T00:28:22.827Z,56.06
2019-06-27T00:30:48.937Z,56.11
2019-06-27T00:33:15.094Z,56.12
2019-06-27T00:35:41.343Z,56.18
2019-06-27T00:38:07.439Z,56.11
2019-06-27T00:40:33.497Z,56.19
2019-06-27T00:42:59.406Z,56.25
2019-06-27T00:45:25.418Z,56.22
2019-06-27T00:47:51.482Z,56.29
2019-06-27T00:50:17.702Z,56.38
2019-06-27T00:52:44.998Z,56.50
2019-06-27T00:55:11.145Z,56.59
2019-06-27T00:57:37.149Z,56.62
2019-06-27T01:00:05.753Z,56.72
2019-06-27T01:02:31.730Z,56.83
2019-06-27T01:04:57.658Z,56.95
2019-06-27T01:07:23.679Z,57.08
2019-06-27T01:09:49.684Z,56.99
2019-06-27T01:12:15.617Z,57.05
2019-06-27T01:14:41.760Z,57.22
2019-06-27T01:17:08.084Z,57.34
2019-06-27T01:19:34.007Z,57.42
2019-06-27T01:22:00.017Z,57.49
2019-06-27T01:24:26.051Z,57.59
2019-06-27T01:26:52.076Z,57.72
2019-06-27T01:29:18.195Z,57.62
2019-06-27T01:31:44.114Z,57.70
2019-06-27T01:34:10.050Z,57.83
2019-06-27T01:36:36.119Z,57.96
2019-06-27T01:39:02.335Z,58.07
2019-06-27T01:41:28.371Z,58.08
2019-06-27T01:43:54.514Z,58.08
2019-06-27T01:46:20.423Z,58.18
2019-06-27T01:48:46.333Z,58.18
2019-06-27T01:51:12.661Z,58.23
2019-06-27T01:53:38.776Z,58.34
2019-06-27T01:56:04.883Z,58.31
2019-06-27T01:58:30.928Z,58.37
2019-06-27T02:00:56.926Z,58.38
2019-06-27T02:03:22.954Z,58.51
2019-06-27T02:05:49.185Z,58.67
2019-06-27T02:08:15.094Z,58.74
2019-06-27T02:10:41.268Z,58.78
2019-06-27T02:13:07.437Z,58.82
2019-06-27T02:15:33.468Z,58.88
2019-06-27T02:17:59.582Z,58.94
2019-06-27T02:20:25.727Z,58.88
2019-06-27T02:22:51.737Z,58.87
2019-06-27T02:25:18.154Z,58.80
2019-06-27T02:27:44.403Z,58.80
2019-06-27T02:30:11.323Z,58.86
2019-06-27T02:32:37.318Z,58.72
2019-06-27T02:35:06.825Z,58.72
2019-06-27T02:37:32.735Z,58.69
2019-06-27T02:39:58.629Z,58.75
2019-06-27T02:42:24.794Z,58.74
2019-06-27T02:44:50.813Z,58.67
2019-06-27T02:47:16.709Z,58.73
2019-06-27T02:49:42.819Z,58.65
2019-06-27T02:52:08.841Z,58.68
2019-06-27T02:54:34.839Z,58.65
2019-06-27T02:57:01.077Z,58.66
2019-06-27T02:59:26.993Z,58.48
2019-06-27T03:01:53.008Z,58.35
2019-06-27T03:04:19.033Z,58.17
2019-06-27T03:06:45.052Z,58.18
2019-06-27T03:09:11.196Z,58.15
2019-06-27T03:11:37.478Z,58.16
2019-06-27T03:14:03.618Z,58.18
2019-06-27T03:16:29.654Z,58.22
2019-06-27T03:18:55.784Z,58.21
2019-06-27T03:21:21.808Z,58.29
2019-06-27T03:23:48.000Z,58.32
2019-06-27T03:26:14.120Z,58.36
2019-06-27T03:28:51.925Z,58.33
2019-06-27T03:31:07.863Z,58.34
2019-06-27T03:33:33.978Z,58.37
2019-06-27T03:35:59.893Z,58.40
2019-06-27T03:38:25.946Z,58.48
2019-06-27T03:40:52.061Z,58.52
2019-06-27T03:43:17.969Z,58.56
2019-06-27T03:45:43.907Z,58.62
2019-06-27T03:48:10.213Z,58.61
2019-06-27T03:50:36.105Z,58.63
2019-06-27T03:53:02.181Z,58.62
2019-06-27T03:55:28.380Z,58.68
2019-06-27T03:57:54.312Z,58.75
2019-06-27T04:00:24.070Z,58.73
2019-06-27T04:02:50.288Z,58.76
2019-06-27T04:05:16.202Z,58.65
2019-06-27T04:07:42.149Z,58.66
2019-06-27T04:10:08.446Z,58.75
2019-06-27T04:12:34.688Z,58.74
2019-06-27T04:15:00.755Z,58.73
2019-06-27T04:17:26.956Z,58.76
2019-06-27T04:19:52.959Z,58.85
2019-06-27T04:22:19.098Z,58.85
2019-06-27T04:24:45.410Z,58.79
2019-06-27T04:27:11.421Z,58.87
2019-06-27T04:29:37.467Z,58.87
2019-06-27T04:32:03.599Z,58.77
2019-06-27T04:34:29.615Z,58.76
2019-06-27T04:36:55.648Z,58.86
2019-06-27T04:39:21.789Z,58.98
2019-06-27T04:41:47.710Z,58.91
2019-06-27T04:44:13.843Z,58.81
2019-06-27T04:46:39.833Z,58.82
2019-06-27T04:49:05.752Z,58.78
2019-06-27T04:51:31.868Z,58.71
2019-06-27T04:53:58.027Z,58.73
2019-06-27T04:56:23.964Z,58.49
2019-06-27T04:58:50.014Z,58.42
2019-06-27T05:01:16.031Z,58.41
2019-06-27T05:03:41.953Z,58.26
2019-06-27T05:06:07.940Z,58.20
2019-06-27T05:08:34.056Z,58.13
2019-06-27T05:11:00.046Z,58.00
2019-06-27T05:13:26.496Z,57.94
2019-06-27T05:15:52.851Z,57.80
2019-06-27T05:18:18.778Z,57.48
2019-06-27T05:20:44.705Z,57.42
2019-06-27T05:23:10.787Z,57.34
2019-06-27T05:25:36.703Z,57.14
2019-06-27T05:28:02.730Z,57.15
2019-06-27T05:30:28.768Z,57.12
2019-06-27T05:32:54.763Z,57.21
2019-06-27T05:35:20.700Z,56.99
2019-06-27T05:37:46.901Z,56.80
2019-06-27T05:40:13.125Z,56.42
2019-06-27T05:42:39.078Z,56.47
2019-06-27T05:45:05.500Z,56.65
2019-06-27T05:47:31.406Z,56.72
2019-06-27T05:49:57.469Z,56.60
2019-06-27T05:52:23.547Z,56.66
2019-06-27T05:54:49.479Z,56.73
2019-06-27T05:57:15.491Z,56.56
2019-06-27T05:59:41.529Z,56.60
2019-06-27T06:02:07.490Z,56.22
2019-06-27T06:04:33.505Z,56.14
2019-06-27T06:06:59.733Z,55.81
2019-06-27T06:09:25.681Z,55.71
2019-06-27T06:11:51.588Z,55.18
2019-06-27T06:14:17.717Z,55.03
2019-06-27T06:16:43.634Z,55.19
2019-06-27T06:19:09.600Z,55.11
2019-06-27T06:21:35.702Z,54.86
2019-06-27T06:24:01.581Z,54.66
2019-06-27T06:26:27.520Z,54.54
2019-06-27T06:28:53.503Z,54.27
2019-06-27T06:31:19.415Z,54.30
2019-06-27T06:33:45.454Z,54.29
2019-06-27T06:36:11.538Z,53.84
2019-06-27T06:38:37.429Z,53.33
2019-06-27T06:41:03.552Z,52.84
2019-06-27T06:43:29.765Z,52.81
2019-06-27T06:45:55.846Z,52.20
2019-06-27T06:48:21.897Z,52.11
2019-06-27T06:50:48.010Z,51.87
2019-06-27T06:53:14.012Z,52.13
2019-06-27T06:55:42.679Z,51.92
2019-06-27T06:58:08.082Z,51.59
2019-06-27T07:00:34.067Z,51.51
2019-06-27T07:03:00.141Z,51.78
2019-06-27T07:05:26.270Z,51.86
2019-06-27T07:07:52.249Z,51.53
2019-06-27T07:10:20.282Z,51.02
2019-06-27T07:12:46.735Z,51.10
2019-06-27T07:15:13.011Z,50.90
2019-06-27T07:17:39.122Z,51.01
2019-06-27T07:20:05.728Z,50.75
2019-06-27T07:22:31.775Z,50.55
2019-06-27T07:24:57.798Z,50.08
2019-06-27T07:27:23.801Z,49.47
2019-06-27T07:29:49.821Z,49.77
2019-06-27T07:32:15.873Z,50.03
2019-06-27T07:34:41.887Z,50.16
2019-06-27T07:37:07.783Z,49.61
2019-06-27T07:39:33.728Z,49.17
2019-06-27T07:41:59.943Z,49.06
2019-06-27T07:44:25.841Z,49.27
2019-06-27T07:46:51.782Z,48.57
2019-06-27T07:49:17.873Z,48.07
2019-06-27T07:51:43.872Z,48.06
2019-06-27T07:54:10.028Z,48.22
2019-06-27T07:56:36.056Z,48.60
2019-06-27T07:59:01.947Z,48.43
2019-06-27T08:01:34.909Z,47.93
2019-06-27T08:03:55.842Z,47.60
2019-06-27T08:06:21.832Z,47.35
2019-06-27T08:08:47.876Z,47.34
2019-06-27T08:11:14.197Z,47.31
2019-06-27T08:13:40.119Z,47.56
2019-06-27T08:16:06.092Z,47.48
2019-06-27T08:18:32.304Z,47.51
2019-06-27T08:20:58.324Z,47.70
2019-06-27T08:23:40.262Z,47.83
2019-06-27T08:25:52.362Z,47.85
2019-06-27T08:28:18.385Z,48.12
2019-06-27T08:30:44.328Z,48.09
2019-06-27T08:33:10.512Z,48.09
2019-06-27T08:35:36.435Z,48.10
2019-06-27T08:38:02.514Z,47.94
2019-06-27T08:40:28.589Z,48.22
2019-06-27T08:42:54.601Z,48.35
2019-06-27T08:45:21.535Z,48.01
2019-06-27T08:47:47.662Z,48.37
2019-06-27T08:50:15.685Z,48.47
2019-06-27T08:52:41.681Z,48.26
2019-06-27T08:55:08.273Z,48.34
2019-06-27T08:57:34.409Z,48.22
2019-06-27T09:00:00.582Z,48.49
2019-06-27T09:02:26.969Z,48.59
2019-06-27T09:04:52.997Z,48.70
2019-06-27T09:07:18.895Z,48.69
2019-06-27T09:09:44.984Z,48.60
2019-06-27T09:12:10.892Z,47.98
2019-06-27T09:14:37.032Z,48.02
2019-06-27T09:17:03.282Z,47.95
2019-06-27T09:19:29.168Z,47.82
2019-06-27T09:21:56.361Z,47.49
2019-06-27T09:24:22.387Z,47.77
2019-06-27T09:26:48.302Z,46.86
2019-06-27T09:29:14.346Z,46.77
2019-06-27T09:31:40.450Z,46.10
2019-06-27T09:34:06.466Z,45.80
2019-06-27T09:36:32.493Z,45.79
2019-06-27T09:38:58.608Z,45.49
2019-06-27T09:41:24.793Z,45.48
2019-06-27T09:43:50.937Z,45.25
2019-06-27T09:46:17.025Z,44.26
2019-06-27T09:48:43.025Z,44.53
2019-06-27T09:51:08.981Z,44.10
2019-06-27T09:53:35.050Z,43.52
2019-06-27T09:56:01.271Z,42.11
2019-06-27T09:58:27.329Z,42.07
2019-06-27T10:00:53.417Z,41.91
2019-06-27T10:03:19.517Z,41.41
2019-06-27T10:05:45.566Z,41.10
2019-06-27T10:08:11.765Z,40.79
2019-06-27T10:10:37.766Z,41.07
2019-06-27T10:13:03.811Z,41.16
2019-06-27T10:15:29.887Z,41.71
2019-06-27T10:17:55.794Z,41.61
2019-06-27T10:20:22.288Z,41.52
2019-06-27T10:22:48.434Z,41.66
2019-06-27T10:25:14.652Z,41.63
2019-06-27T10:27:40.676Z,41.68
2019-06-27T10:30:07.344Z,41.56
2019-06-27T10:32:33.355Z,41.40
2019-06-27T10:34:59.889Z,41.57
2019-06-27T10:37:26.003Z,41.65
2019-06-27T10:39:51.893Z,41.75
2019-06-27T10:42:17.968Z,41.79
2019-06-27T10:44:44.014Z,40.94
2019-06-27T10:47:09.910Z,40.92
2019-06-27T10:49:35.869Z,41.23
2019-06-27T10:52:02.151Z,41.21
2019-06-27T10:54:28.150Z,41.68
2019-06-27T10:56:54.063Z,41.60
2019-06-27T10:59:20.196Z,41.46
2019-06-27T11:01:46.191Z,41.12
2019-06-27T11:04:12.113Z,41.12
2019-06-27T11:06:38.373Z,40.99
2019-06-27T11:09:04.669Z,41.00
2019-06-27T11:11:30.628Z,40.67
2019-06-27T11:13:59.320Z,40.97
2019-06-27T11:16:24.755Z,40.48
2019-06-27T11:18:50.684Z,40.27
2019-06-27T11:21:16.996Z,40.35
2019-06-27T11:23:42.895Z,40.37
2019-06-27T11:26:09.624Z,40.27
2019-06-27T11:28:35.826Z,40.08
2019-06-27T11:31:01.829Z,39.48
2019-06-27T11:33:32.560Z,39.49
2019-06-27T11:35:55.793Z,39.55
2019-06-27T11:38:21.687Z,39.54
2019-06-27T11:40:47.708Z,39.35
2019-06-27T11:43:13.816Z,39.00
2019-06-27T11:45:39.831Z,39.01
2019-06-27T11:48:05.977Z,39.08
2019-06-27T11:50:32.158Z,38.92
2019-06-27T11:52:58.285Z,39.37
2019-06-27T11:55:24.466Z,39.18
2019-06-27T11:57:50.412Z,39.13
2019-06-27T12:00:17.388Z,39.18
2019-06-27T12:02:43.598Z,39.29
2019-06-27T12:05:09.797Z,39.45
2019-06-27T12:07:35.833Z,39.38
2019-06-27T12:10:03.348Z,39.18
2019-06-27T12:12:29.445Z,38.70
2019-06-27T12:14:55.476Z,37.75
2019-06-27T12:17:21.488Z,36.64
2019-06-27T12:19:47.559Z,36.13
2019-06-27T12:22:13.527Z,36.02
2019-06-27T12:24:39.789Z,36.31
2019-06-27T12:27:05.751Z,36.58
2019-06-27T12:29:31.753Z,35.72
2019-06-27T12:31:57.671Z,35.54
2019-06-27T12:34:23.780Z,35.47
2019-06-27T12:36:49.742Z,35.58
2019-06-27T12:39:15.874Z,35.01
2019-06-27T12:41:42.012Z,34.58
2019-06-27T12:44:08.073Z,34.92
2019-06-27T12:46:34.236Z,34.69
2019-06-27T12:49:00.355Z,33.18
2019-06-27T12:51:26.346Z,33.60
2019-06-27T12:53:55.724Z,33.74
2019-06-27T12:56:20.282Z,33.08
2019-06-27T12:58:46.405Z,33.38
2019-06-27T13:01:12.537Z,32.78
2019-06-27T13:03:38.656Z,33.26
2019-06-27T13:06:04.743Z,33.50
2019-06-27T13:08:30.661Z,33.33
2019-06-27T13:10:56.908Z,33.14
2019-06-27T13:13:23.019Z,32.87
2019-06-27T13:15:49.015Z,32.77
2019-06-27T13:18:15.130Z,32.78
2019-06-27T13:20:56.565Z,32.34
2019-06-27T13:23:08.942Z,31.91
2019-06-27T13:25:35.076Z,32.00
2019-06-27T13:28:01.119Z,31.99
2019-06-27T13:30:27.356Z,32.01
2019-06-27T13:32:53.432Z,32.07
2019-06-27T13:35:19.337Z,32.00
2019-06-27T13:37:45.298Z,31.88
2019-06-27T13:40:11.992Z,32.26
2019-06-27T13:42:38.632Z,32.31
2019-06-27T13:45:06.019Z,32.03
2019-06-27T13:47:32.081Z,32.20
2019-06-27T13:49:58.182Z,32.13
2019-06-27T13:52:24.280Z,32.51
2019-06-27T13:54:50.476Z,31.79
2019-06-27T13:57:16.495Z,32.33
2019-06-27T13:59:42.392Z,31.48
2019-06-27T14:02:08.448Z,31.72
2019-06-27T14:04:34.597Z,32.01
2019-06-27T14:07:00.691Z,32.19
2019-06-27T14:09:26.690Z,32.29
2019-06-27T14:11:52.684Z,32.35
2019-06-27T14:14:18.661Z,32.09
2019-06-27T14:16:44.764Z,32.18
2019-06-27T14:19:10.722Z,32.30
2019-06-27T14:21:36.603Z,31.88
2019-06-27T14:24:02.972Z,31.45
2019-06-27T14:26:28.886Z,31.32
2019-06-27T14:28:54.904Z,31.02
2019-06-27T14:31:21.194Z,31.25
2019-06-27T14:33:47.088Z,31.17
2019-06-27T14:36:13.024Z,31.29
2019-06-27T14:38:39.317Z,31.00
2019-06-27T14:41:05.414Z,30.94
2019-06-27T14:43:31.487Z,29.43
2019-06-27T14:45:57.590Z,29.65
2019-06-27T14:48:23.466Z,29.58
2019-06-27T14:50:49.362Z,29.28
2019-06-27T14:53:15.471Z,29.56
2019-06-27T14:55:41.404Z,29.68
2019-06-27T14:58:07.450Z,29.97
2019-06-27T15:00:33.651Z,29.88
2019-06-27T15:02:59.559Z,30.22
2019-06-27T15:05:32.469Z,29.83
2019-06-27T15:07:53.638Z,29.75
2019-06-27T15:10:19.954Z,29.32
2019-06-27T15:12:56.460Z,29.19
2019-06-27T15:15:14.869Z,28.80
2019-06-27T15:17:40.949Z,28.77
2019-06-27T15:20:06.890Z,29.13
2019-06-27T15:22:33.349Z,29.26
2019-06-27T15:25:00.773Z,29.25
2019-06-27T15:27:26.919Z,29.44
2019-06-27T15:29:52.984Z,29.79
2019-06-27T15:32:18.878Z,29.66
2019-06-27T15:34:44.799Z,29.87
2019-06-27T15:37:10.924Z,29.62
2019-06-27T15:39:36.917Z,28.81
2019-06-27T15:42:03.147Z,28.91
2019-06-27T15:44:29.420Z,29.06
2019-06-27T15:46:55.305Z,29.07
2019-06-27T15:49:21.219Z,28.94
2019-06-27T15:51:47.399Z,28.31
2019-06-27T15:54:13.342Z,28.05
2019-06-27T15:56:39.300Z,27.55
2019-06-27T15:59:05.389Z,27.37
2019-06-27T16:01:31.291Z,27.10
2019-06-27T16:03:57.281Z,26.56
2019-06-27T16:06:23.327Z,26.39
2019-06-27T16:08:49.383Z,25.96
2019-06-27T16:11:15.465Z,26.18
2019-06-27T16:13:41.671Z,25.82
2019-06-27T16:16:07.703Z,26.08
2019-06-27T16:18:33.586Z,26.00
2019-06-27T16:20:59.751Z,26.02
2019-06-27T16:23:25.649Z,25.54
2019-06-27T16:25:51.596Z,25.53
2019-06-27T16:28:17.824Z,25.38
2019-06-27T16:30:43.844Z,25.45
2019-06-27T16:33:09.742Z,24.31
2019-06-27T16:35:37.970Z,24.95
2019-06-27T16:38:04.087Z,25.24
2019-06-27T16:40:29.984Z,25.33
2019-06-27T16:42:56.199Z,25.34
2019-06-27T16:45:22.331Z,25.75
2019-06-27T16:47:48.240Z,25.94
2019-06-27T16:50:14.625Z,26.01
2019-06-27T16:52:40.750Z,26.22
2019-06-27T16:55:07.051Z,26.09
2019-06-27T16:57:33.239Z,26.49
2019-06-27T16:59:59.221Z,26.44
2019-06-27T17:02:25.146Z,26.45
2019-06-27T17:04:51.168Z,26.56
2019-06-27T17:07:17.252Z,26.51
2019-06-27T17:09:44.139Z,26.15
2019-06-27T17:12:10.146Z,26.40
2019-06-27T17:14:36.072Z,26.55
2019-06-27T17:17:02.109Z,26.53
2019-06-27T17:19:28.150Z,26.70
2019-06-27T17:21:54.325Z,26.32
2019-06-27T17:24:20.461Z,26.24
2019-06-27T17:26:46.847Z,26.36
2019-06-27T17:29:12.835Z,26.37
2019-06-27T17:31:38.753Z,26.27
2019-06-27T17:34:04.941Z,26.35
2019-06-27T17:36:31.036Z,26.76
2019-06-27T17:38:56.963Z,26.81
2019-06-27T17:41:23.126Z,27.12
2019-06-27T17:43:49.018Z,27.28
2019-06-27T17:46:14.904Z,27.33
2019-06-27T17:48:41.150Z,27.68
2019-06-27T17:51:08.142Z,27.64
2019-06-27T17:53:34.159Z,27.87
2019-06-27T17:56:00.343Z,27.96
2019-06-27T17:58:26.256Z,27.99
2019-06-27T18:00:52.286Z,28.12
2019-06-27T18:03:18.468Z,28.17
2019-06-27T18:05:44.380Z,28.39
2019-06-27T18:08:10.290Z,28.62
2019-06-27T18:10:36.539Z,28.84
2019-06-27T18:13:02.659Z,28.80
2019-06-27T18:15:28.754Z,28.89
2019-06-27T18:17:54.878Z,28.83
2019-06-27T18:20:20.862Z,29.01
2019-06-27T18:22:46.787Z,28.97
2019-06-27T18:25:13.010Z,29.11
2019-06-27T18:27:39.004Z,29.16
2019-06-27T18:30:05.672Z,29.26
2019-06-27T18:32:31.810Z,29.15
2019-06-27T18:34:57.703Z,29.41
2019-06-27T18:37:29.583Z,29.71
2019-06-27T18:39:51.665Z,29.90
2019-06-27T18:42:17.553Z,30.03
2019-06-27T18:44:43.456Z,30.03
2019-06-27T18:47:09.477Z,30.09
2019-06-27T18:49:35.376Z,30.18
2019-06-27T18:52:01.401Z,29.94
2019-06-27T18:54:27.494Z,29.85
2019-06-27T18:56:53.488Z,29.68
2019-06-27T18:59:19.389Z,29.90
2019-06-27T19:01:45.817Z,29.96
2019-06-27T19:04:13.636Z,29.79
2019-06-27T19:06:39.523Z,30.11
2019-06-27T19:09:05.973Z,29.88
2019-06-27T19:11:31.986Z,29.78
2019-06-27T19:13:57.852Z,29.63
2019-06-27T19:16:23.914Z,29.47
2019-06-27T19:18:54.219Z,29.64
2019-06-27T19:21:38.754Z,29.44
2019-06-27T19:24:06.628Z,29.40
2019-06-27T19:26:32.744Z,29.58
2019-06-27T19:28:58.820Z,29.28
2019-06-27T19:31:24.773Z,29.28
2019-06-27T19:33:50.799Z,29.30
2019-06-27T19:36:17.155Z,29.31
2019-06-27T19:38:43.173Z,29.42
2019-06-27T19:41:09.170Z,29.45
2019-06-27T19:43:35.322Z,29.41
2019-06-27T19:46:01.347Z,29.48
2019-06-27T19:48:27.460Z,29.57
2019-06-27T19:50:54.877Z,29.49
2019-06-27T19:53:20.842Z,29.55
2019-06-27T19:55:46.852Z,29.67
2019-06-27T19:58:13.116Z,29.56
2019-06-27T20:00:39.031Z,29.63
2019-06-27T20:03:05.047Z,29.85
2019-06-27T20:05:31.249Z,29.94
2019-06-27T20:07:57.139Z,30.10
2019-06-27T20:10:23.255Z,30.15
2019-06-27T20:12:49.558Z,30.31
2019-06-27T20:15:15.571Z,30.40
2019-06-27T20:17:41.454Z,30.63
2019-06-27T20:20:07.913Z,30.82
2019-06-27T20:22:33.984Z,30.99
2019-06-27T20:24:59.881Z,31.15
2019-06-27T20:27:26.047Z,31.33
2019-06-27T20:29:51.965Z,31.43
2019-06-27T20:32:18.157Z,31.49
2019-06-27T20:34:44.310Z,31.62
2019-06-27T20:37:10.303Z,31.73
2019-06-27T20:39:36.244Z,31.83
2019-06-27T20:42:02.564Z,31.96
2019-06-27T20:44:28.553Z,32.06
2019-06-27T20:46:54.561Z,32.19
2019-06-27T20:49:20.660Z,32.32
2019-06-27T20:51:47.070Z,32.44
2019-06-27T20:54:13.201Z,32.58
2019-06-27T20:56:39.191Z,32.75
2019-06-27T20:59:05.202Z,32.85
2019-06-27T21:01:31.808Z,33.02
2019-06-27T21:03:58.452Z,33.15
2019-06-27T21:06:24.493Z,33.24
2019-06-27T21:08:51.869Z,33.34
2019-06-27T21:11:18.088Z,33.71
2019-06-27T21:13:44.127Z,33.97
2019-06-27T21:16:10.266Z,34.07
2019-06-27T21:18:36.432Z,34.23
2019-06-27T21:21:02.463Z,34.48
2019-06-27T21:23:28.365Z,34.69
2019-06-27T21:25:54.379Z,34.61
2019-06-27T21:28:20.309Z,34.49
2019-06-27T21:30:46.313Z,34.48
2019-06-27T21:33:12.386Z,34.47
2019-06-27T21:35:38.419Z,34.45
2019-06-27T21:38:04.431Z,34.49
2019-06-27T21:40:30.722Z,34.52
2019-06-27T21:42:56.765Z,34.60
2019-06-27T21:45:22.853Z,34.68
2019-06-27T21:47:48.870Z,34.75
2019-06-27T21:50:14.977Z,34.89
2019-06-27T21:52:41.117Z,34.92
2019-06-27T21:55:07.384Z,34.99
2019-06-27T21:57:33.394Z,35.10
2019-06-27T21:59:59.523Z,35.36
2019-06-27T22:02:25.693Z,35.58
2019-06-27T22:04:51.606Z,35.80
2019-06-27T22:07:17.520Z,36.09
2019-06-27T22:09:43.841Z,36.24
2019-06-27T22:12:09.857Z,36.52
2019-06-27T22:14:35.958Z,36.63
2019-06-27T22:17:02.091Z,36.76
2019-06-27T22:19:27.980Z,36.98
2019-06-27T22:21:53.993Z,37.15
2019-06-27T22:24:20.053Z,37.17
2019-06-27T22:26:46.182Z,37.25
2019-06-27T22:29:13.208Z,37.53
2019-06-27T22:31:39.250Z,37.81
2019-06-27T22:34:05.153Z,38.06
2019-06-27T22:36:31.158Z,38.08
2019-06-27T22:39:15.570Z,38.15
2019-06-27T22:41:59.974Z,38.19
2019-06-27T22:44:44.438Z,38.27
2019-06-27T22:47:28.931Z,38.30
2019-06-27T22:49:54.930Z,38.31
2019-06-27T22:52:34.561Z,38.47
2019-06-27T22:55:05.372Z,38.81
2019-06-27T22:57:31.291Z,39.11
2019-06-27T22:59:57.197Z,39.48
2019-06-27T23:02:23.342Z,39.77
2019-06-27T23:04:49.360Z,39.91
2019-06-27T23:07:15.264Z,40.10
2019-06-27T23:09:56.001Z,40.24
2019-06-27T23:12:09.431Z,40.42
2019-06-27T23:14:35.365Z,40.53
2019-06-27T23:17:01.559Z,40.59
2019-06-27T23:19:27.453Z,40.71
2019-06-27T23:21:53.479Z,40.83
2019-06-27T23:24:19.572Z,40.77
2019-06-27T23:26:45.701Z,40.76
2019-06-27T23:29:11.693Z,40.66
2019-06-27T23:31:37.726Z,40.60
2019-06-27T23:34:03.730Z,40.60
2019-06-27T23:36:29.818Z,40.59
2019-06-27T23:38:55.853Z,40.56
2019-06-27T23:41:21.754Z,40.53
2019-06-27T23:43:47.776Z,40.55
2019-06-27T23:46:33.498Z,40.60
2019-06-27T23:48:59.498Z,40.68
2019-06-27T23:51:25.563Z,40.72
2019-06-27T23:53:51.735Z,40.75
2019-06-27T23:56:17.644Z,40.78
2019-06-27T23:58:43.568Z,40.87
